Time;durP1;ratioP1;P1;durP2;ratioP2;P2;SDS_P1;SDS_P2;PMS_P1;PMS_P2;Temp;Humidity;BMP_temperature;BMP_pressure;BME280_temperature;BME280_humidity;BME280_pressure;Samples;Min_cycle;Max_cycle;Signal;HPM_P1;HPM_P2
2021/05/25 00:02:11;;;;;;;17.70;15.90;;;21.90;29.20;;;;;;4970385;28;20446;-75
2021/05/25 00:04:37;;;;;;;17.60;15.70;;;21.80;29.20;;;;;;4975361;28;20163;-75
2021/05/25 00:07:03;;;;;;;16.10;14.40;;;21.90;29.30;;;;;;4976035;28;20170;-75
2021/05/25 00:09:28;;;;;;;17.60;15.83;;;21.90;29.20;;;;;;4974731;28;20187;-75
2021/05/25 00:11:54;;;;;;;16.30;14.70;;;21.80;29.20;;;;;;4975954;28;20437;-75
2021/05/25 00:14:21;;;;;;;16.23;14.73;;;21.90;29.20;;;;;;4975903;28;20194;-75
2021/05/25 00:16:48;;;;;;;14.93;13.40;;;21.90;29.10;;;;;;4975915;28;20556;-75
2021/05/25 00:19:14;;;;;;;15.53;14.03;;;21.80;29.20;;;;;;4976072;28;20417;-75
2021/05/25 00:21:40;;;;;;;15.57;13.97;;;21.90;29.20;;;;;;4974550;28;20473;-75
2021/05/25 00:24:06;;;;;;;15.83;14.33;;;21.90;29.10;;;;;;4975858;28;20425;-76
2021/05/25 00:26:32;;;;;;;16.07;14.50;;;21.90;29.10;;;;;;4975763;28;20205;-75
2021/05/25 00:28:57;;;;;;;15.00;13.60;;;21.90;29.20;;;;;;4976115;28;20916;-75
2021/05/25 00:31:23;;;;;;;13.70;12.50;;;21.80;29.20;;;;;;4975832;28;20521;-74
2021/05/25 00:33:48;;;;;;;16.70;13.13;;;21.80;29.20;;;;;;4976599;28;20174;-75
2021/05/25 00:36:14;;;;;;;15.17;13.80;;;21.90;29.20;;;;;;4976011;28;20170;-75
2021/05/25 00:38:39;;;;;;;14.77;12.50;;;21.90;29.10;;;;;;4976576;28;20182;-75
2021/05/25 00:41:05;;;;;;;13.87;12.60;;;21.90;29.10;;;;;;4975703;28;20206;-75
2021/05/25 00:43:30;;;;;;;14.73;13.32;;;21.90;29.10;;;;;;4974976;28;20406;-75
2021/05/25 00:45:56;;;;;;;14.40;13.10;;;21.90;29.10;;;;;;4975343;28;20206;-75
2021/05/25 00:48:22;;;;;;;14.77;13.37;;;21.90;29.00;;;;;;4975392;28;20553;-75
2021/05/25 00:50:47;;;;;;;14.13;12.63;;;21.90;29.00;;;;;;4975273;28;20573;-75
2021/05/25 00:53:13;;;;;;;14.30;12.97;;;22.00;29.00;;;;;;4975372;28;20217;-75
2021/05/25 00:55:40;;;;;;;14.00;12.53;;;21.90;28.90;;;;;;4957718;28;20289;-75
2021/05/25 00:58:08;;;;;;;14.73;13.23;;;22.00;29.00;;;;;;4975212;28;20563;-75
2021/05/25 01:00:38;;;;;;;13.00;11.70;;;22.00;29.00;;;;;;4975005;28;20920;-75
2021/05/25 01:03:05;;;;;;;13.80;12.50;;;21.90;28.90;;;;;;4975113;28;20410;-75
2021/05/25 01:05:32;;;;;;;13.00;11.90;;;21.90;28.90;;;;;;4974849;28;20493;-75
2021/05/25 01:07:58;;;;;;;13.33;12.13;;;21.90;28.90;;;;;;4975041;28;20442;-75
2021/05/25 01:10:43;;;;;;;12.48;11.38;;;21.90;28.90;;;;;;4974868;28;20465;-74
2021/05/25 01:13:17;;;;;;;12.40;11.20;;;21.90;28.90;;;;;;4974988;28;20545;-75
2021/05/25 01:15:43;;;;;;;13.37;12.17;;;21.90;28.90;;;;;;4973564;28;20426;-75
2021/05/25 01:18:08;;;;;;;12.87;11.67;;;21.90;29.00;;;;;;4974827;28;20917;-75
2021/05/25 01:20:37;;;;;;;11.93;10.93;;;21.90;28.80;;;;;;4974542;28;20617;-75
2021/05/25 01:23:04;;;;;;;11.83;10.63;;;21.90;29.00;;;;;;4974661;28;20174;-75
2021/05/25 01:25:31;;;;;;;11.97;10.87;;;21.80;29.00;;;;;;4974356;28;20415;-75
2021/05/25 01:27:59;;;;;;;12.03;10.80;;;21.80;28.90;;;;;;4974633;28;20426;-75
2021/05/25 01:30:27;;;;;;;13.33;10.80;;;21.90;29.00;;;;;;4974489;28;20521;-75
2021/05/25 01:32:54;;;;;;;12.00;10.80;;;21.90;29.00;;;;;;4957213;28;20418;-75
2021/05/25 01:35:21;;;;;;;12.10;11.00;;;21.90;28.90;;;;;;4974347;28;20417;-75
2021/05/25 01:37:47;;;;;;;10.93;9.97;;;21.90;28.80;;;;;;4974443;28;20410;-75
2021/05/25 01:40:13;;;;;;;10.70;9.80;;;21.90;28.80;;;;;;4974339;28;20454;-75
2021/05/25 01:42:40;;;;;;;11.67;10.30;;;21.90;29.00;;;;;;4974273;28;20445;-75
2021/05/25 01:45:07;;;;;;;11.10;10.00;;;21.90;28.90;;;;;;4973903;28;20438;-75
2021/05/25 01:47:33;;;;;;;11.77;10.57;;;21.90;28.80;;;;;;4974408;28;20440;-75
2021/05/25 01:50:12;;;;;;;11.00;10.10;;;21.90;28.70;;;;;;4973901;28;20885;-75
2021/05/25 01:52:39;;;;;;;11.30;10.20;;;21.90;28.70;;;;;;4974094;28;20426;-74
2021/05/25 01:55:08;;;;;;;10.13;9.27;;;21.90;28.70;;;;;;4973827;28;20434;-75
2021/05/25 01:57:35;;;;;;;11.53;9.87;;;21.90;28.80;;;;;;4974170;28;20746;-75
2021/05/25 02:00:01;;;;;;;10.50;9.60;;;21.90;28.70;;;;;;4974105;28;20465;-75
2021/05/25 02:02:26;;;;;;;11.77;10.60;;;21.90;28.60;;;;;;4974054;28;20977;-75
2021/05/25 02:04:52;;;;;;;9.40;8.50;;;21.90;28.70;;;;;;4974015;28;20175;-75
2021/05/25 02:07:18;;;;;;;10.10;9.20;;;21.90;28.70;;;;;;4972341;28;20190;-75
2021/05/25 02:09:44;;;;;;;9.60;8.80;;;21.90;28.70;;;;;;4974130;28;20703;-75
2021/05/25 02:12:15;;;;;;;10.43;9.47;;;21.90;28.70;;;;;;4973713;28;20513;-74
2021/05/25 02:14:41;;;;;;;9.70;8.90;;;21.90;28.60;;;;;;4973925;28;20175;-75
2021/05/25 02:17:06;;;;;;;10.17;9.17;;;21.90;28.70;;;;;;4973580;28;20426;-75
2021/05/25 02:19:32;;;;;;;9.80;8.73;;;21.90;28.60;;;;;;4973772;28;20332;-75
2021/05/25 02:21:57;;;;;;;10.10;9.30;;;21.90;28.60;;;;;;4973438;28;20317;-74
2021/05/25 02:24:23;;;;;;;8.97;8.27;;;21.90;28.70;;;;;;4973688;28;20197;-75
2021/05/25 02:26:48;;;;;;;9.30;8.50;;;21.90;28.60;;;;;;4972751;28;20652;-74
2021/05/25 02:29:14;;;;;;;9.60;8.90;;;21.90;28.60;;;;;;4973577;28;20175;-75
2021/05/25 02:31:41;;;;;;;9.30;8.40;;;21.90;28.50;;;;;;4972083;28;20207;-75
2021/05/25 02:34:06;;;;;;;10.02;9.02;;;21.90;28.70;;;;;;4972871;28;20520;-75
2021/05/25 02:36:32;;;;;;;9.40;8.60;;;21.90;28.60;;;;;;4973311;28;20689;-75
2021/05/25 02:38:58;;;;;;;8.90;8.20;;;21.90;28.50;;;;;;4973379;28;20653;-75
2021/05/25 02:41:23;;;;;;;9.60;8.80;;;21.90;28.50;;;;;;4973236;28;20210;-74
2021/05/25 02:43:50;;;;;;;8.43;7.73;;;21.90;28.50;;;;;;4973479;28;20171;-74
2021/05/25 02:46:16;;;;;;;7.80;7.20;;;21.90;28.50;;;;;;4973331;28;20210;-75
2021/05/25 02:48:41;;;;;;;9.17;8.37;;;21.90;28.40;;;;;;4955962;28;20833;-74
2021/05/25 02:51:07;;;;;;;8.33;7.67;;;21.90;28.40;;;;;;4955829;28;20295;-74
2021/05/25 02:53:33;;;;;;;8.77;7.90;;;21.90;28.50;;;;;;4973210;28;20648;-74
2021/05/25 02:55:58;;;;;;;8.63;7.93;;;21.90;28.40;;;;;;4973006;28;20209;-75
2021/05/25 02:58:24;;;;;;;8.33;7.63;;;21.80;28.40;;;;;;4972043;28;20179;-75
2021/05/25 03:00:49;;;;;;;8.43;7.73;;;21.80;28.40;;;;;;4973067;28;20207;-75
2021/05/25 03:03:16;;;;;;;8.43;7.73;;;21.80;28.40;;;;;;4973334;28;20181;-75
2021/05/25 03:05:43;;;;;;;7.73;7.13;;;21.80;28.50;;;;;;4972969;28;20174;-76
2021/05/25 03:08:10;;;;;;;8.20;7.60;;;21.80;28.50;;;;;;4973164;28;20875;-75
2021/05/25 03:10:39;;;;;;;8.27;7.47;;;21.80;28.50;;;;;;4973056;28;20442;-75
2021/05/25 03:13:05;;;;;;;7.27;6.67;;;21.80;28.40;;;;;;4973219;28;20402;-75
2021/05/25 03:15:34;;;;;;;8.03;7.40;;;21.80;28.40;;;;;;4972852;28;20926;-75
2021/05/25 03:18:01;;;;;;;8.20;7.50;;;21.80;28.40;;;;;;4972279;28;20421;-75
2021/05/25 03:20:27;;;;;;;7.83;7.23;;;21.90;28.40;;;;;;4972995;28;20285;-75
2021/05/25 03:22:53;;;;;;;8.20;7.60;;;21.80;28.50;;;;;;4972211;28;20406;-75
2021/05/25 03:25:19;;;;;;;7.87;7.20;;;21.80;28.30;;;;;;4973017;28;20178;-75
2021/05/25 03:27:46;;;;;;;6.77;6.10;;;21.90;28.30;;;;;;4973076;28;20167;-75
2021/05/25 03:30:15;;;;;;;7.25;6.65;;;21.80;28.20;;;;;;4972010;28;20457;-75
2021/05/25 03:32:40;;;;;;;7.20;6.60;;;21.90;28.20;;;;;;4972875;28;20194;-75
2021/05/25 03:35:08;;;;;;;7.57;6.97;;;21.90;28.30;;;;;;4972894;28;20909;-75
2021/05/25 03:37:34;;;;;;;7.47;6.90;;;21.90;28.30;;;;;;4971596;28;20170;-75
2021/05/25 03:40:00;;;;;;;6.83;6.33;;;21.90;28.30;;;;;;4976395;28;20464;-75
2021/05/25 03:42:26;;;;;;;7.53;6.87;;;21.80;28.20;;;;;;4976682;28;20434;-75
2021/05/25 03:44:51;;;;;;;7.00;6.40;;;21.80;28.30;;;;;;4976508;28;20892;-76
2021/05/25 03:47:18;;;;;;;7.17;6.63;;;21.80;28.30;;;;;;4976656;28;20266;-75
2021/05/25 03:49:46;;;;;;;6.47;5.97;;;21.90;28.40;;;;;;4976900;28;20198;-75
2021/05/25 03:52:11;;;;;;;6.07;5.50;;;21.90;28.20;;;;;;4975884;28;20438;-75
2021/05/25 03:54:43;;;;;;;6.27;5.77;;;21.80;28.10;;;;;;4977663;28;20803;-76
2021/05/25 03:57:24;;;;;;;6.57;6.07;;;21.90;28.20;;;;;;4976889;28;20590;-74
2021/05/25 03:59:49;;;;;;;7.17;6.30;;;21.80;27.90;;;;;;4977773;28;20414;-74
2021/05/25 04:02:15;;;;;;;6.93;6.33;;;21.80;28.10;;;;;;4977432;28;20565;-75
2021/05/25 04:04:40;;;;;;;6.97;6.33;;;21.90;28.20;;;;;;4960080;28;20541;-75
2021/05/25 04:07:06;;;;;;;6.90;6.20;;;21.80;28.30;;;;;;4976569;28;20253;-75
2021/05/25 04:09:32;;;;;;;5.90;5.50;;;21.80;28.20;;;;;;4976485;28;20187;-75
2021/05/25 04:11:57;;;;;;;6.60;6.00;;;21.90;28.10;;;;;;4976117;28;20202;-75
2021/05/25 04:14:23;;;;;;;6.33;5.83;;;21.80;28.10;;;;;;4976361;28;20175;-75
2021/05/25 04:16:48;;;;;;;6.80;6.30;;;21.80;28.20;;;;;;4976091;28;20255;-75
2021/05/25 04:19:14;;;;;;;6.87;6.27;;;21.80;28.80;;;;;;4976109;28;20711;-75
2021/05/25 04:21:39;;;;;;;6.70;6.10;;;21.90;28.20;;;;;;4975981;28;20234;-75
2021/05/25 04:24:05;;;;;;;5.60;5.27;;;21.90;28.00;;;;;;4975956;28;20700;-75
2021/05/25 04:26:31;;;;;;;6.30;5.80;;;21.80;28.00;;;;;;4975824;28;20167;-75
2021/05/25 04:28:56;;;;;;;6.10;5.70;;;21.80;28.00;;;;;;4975809;28;20183;-75
2021/05/25 04:31:22;;;;;;;5.63;5.13;;;21.90;28.20;;;;;;4975918;28;20198;-75
2021/05/25 04:33:48;;;;;;;6.50;5.90;;;21.70;28.10;;;;;;4974861;28;20425;-75
2021/05/25 04:36:16;;;;;;;7.27;5.43;;;21.80;27.80;;;;;;4975638;28;20175;-75
2021/05/25 04:38:42;;;;;;;5.77;5.27;;;21.80;27.80;;;;;;4975686;28;20694;-75
2021/05/25 04:41:08;;;;;;;5.27;4.87;;;21.80;28.00;;;;;;4958247;28;20465;-75
2021/05/25 04:43:33;;;;;;;6.03;5.43;;;21.70;27.60;;;;;;4975532;28;20547;-75
2021/05/25 04:45:59;;;;;;;5.80;5.40;;;21.80;27.90;;;;;;4975420;28;20643;-76
2021/05/25 04:48:24;;;;;;;5.80;5.33;;;21.90;27.90;;;;;;4975455;28;20175;-75
2021/05/25 04:50:50;;;;;;;6.17;5.77;;;21.90;28.10;;;;;;4975231;28;20199;-75
2021/05/25 04:53:15;;;;;;;7.10;5.63;;;21.90;28.00;;;;;;4975400;28;20179;-75
2021/05/25 04:55:41;;;;;;;5.90;5.30;;;21.80;28.00;;;;;;4975160;28;20229;-75
2021/05/25 04:58:07;;;;;;;6.33;5.67;;;21.90;28.40;;;;;;4975275;28;20234;-75
2021/05/25 05:00:32;;;;;;;6.27;5.77;;;21.90;28.20;;;;;;4975376;28;20214;-75
2021/05/25 05:02:58;;;;;;;6.33;5.83;;;21.90;28.40;;;;;;4975191;28;20181;-75
2021/05/25 05:05:24;;;;;;;5.47;4.97;;;21.80;28.40;;;;;;4974957;28;20167;-76
2021/05/25 05:07:50;;;;;;;6.60;6.10;;;21.90;28.20;;;;;;4975589;28;20175;-75
2021/05/25 05:10:17;;;;;;;5.67;5.20;;;21.90;28.20;;;;;;4974265;28;20508;-75
2021/05/25 05:12:43;;;;;;;5.40;5.00;;;21.90;28.40;;;;;;4976389;28;20226;-75
2021/05/25 05:15:10;;;;;;;5.33;4.83;;;21.90;28.10;;;;;;4956994;28;20951;-75
2021/05/25 05:17:36;;;;;;;5.73;5.17;;;22.00;28.30;;;;;;4980057;28;20425;-75
2021/05/25 05:20:03;;;;;;;6.43;5.47;;;22.00;28.20;;;;;;4970157;28;20427;-75
2021/05/25 05:22:29;;;;;;;6.97;5.85;;;22.00;27.90;;;;;;4955096;28;20468;-75
2021/05/25 05:24:56;;;;;;;6.60;6.00;;;22.00;27.90;;;;;;4956030;29;20203;-75
2021/05/25 05:27:21;;;;;;;9.07;6.33;;;22.10;28.30;;;;;;4971195;28;21169;-75
2021/05/25 05:29:47;;;;;;;9.13;5.80;;;22.10;28.40;;;;;;4974490;28;20178;-75
2021/05/25 05:32:13;;;;;;;9.63;5.77;;;22.20;28.20;;;;;;4974619;28;20245;-75
2021/05/25 05:34:38;;;;;;;6.00;5.50;;;22.20;28.50;;;;;;4974296;28;20618;-75
2021/05/25 05:37:04;;;;;;;6.97;6.33;;;22.20;28.50;;;;;;4973378;28;20186;-74
2021/05/25 05:39:30;;;;;;;7.30;6.20;;;22.20;28.50;;;;;;4974777;28;20186;-74
2021/05/25 05:41:56;;;;;;;6.53;5.33;;;22.30;28.40;;;;;;4974451;28;20696;-74
2021/05/25 05:44:22;;;;;;;6.80;5.40;;;22.20;28.30;;;;;;4974149;28;20410;-75
2021/05/25 05:46:48;;;;;;;6.53;5.50;;;22.40;28.40;;;;;;4956864;28;20190;-75
2021/05/25 05:49:13;;;;;;;8.93;6.00;;;22.40;28.30;;;;;;4973175;28;20449;-74
2021/05/25 05:51:39;;;;;;;6.53;4.70;;;22.30;28.30;;;;;;4907177;28;20482;-75
2021/05/25 05:54:05;;;;;;;4.47;4.07;;;22.30;28.10;;;;;;4976289;28;20457;-71
2021/05/25 05:56:31;;;;;;;6.17;4.00;;;22.00;26.40;;;;;;4973712;28;20237;-75
2021/05/25 05:58:56;;;;;;;3.93;3.47;;;21.60;25.70;;;;;;4974026;28;20194;-74
2021/05/25 06:01:22;;;;;;;4.30;3.87;;;21.30;24.90;;;;;;4973260;28;20236;-75
2021/05/25 06:03:48;;;;;;;3.37;3.07;;;21.00;24.30;;;;;;4973284;28;20194;-75
2021/05/25 06:06:14;;;;;;;3.10;2.90;;;21.00;24.50;;;;;;4973789;28;20696;-75
2021/05/25 06:08:41;;;;;;;3.83;3.53;;;21.20;25.30;;;;;;4956812;28;20186;-76
2021/05/25 06:11:07;;;;;;;3.23;2.83;;;21.40;25.50;;;;;;4973757;28;20524;-75
2021/05/25 06:13:33;;;;;;;3.30;2.90;;;21.60;25.50;;;;;;4974134;28;20420;-76
2021/05/25 06:16:02;;;;;;;3.40;2.90;;;21.70;25.50;;;;;;4973469;28;20784;-75
2021/05/25 06:18:29;;;;;;;4.40;3.00;;;21.80;25.80;;;;;;4973351;28;20422;-75
2021/05/25 06:20:55;;;;;;;3.43;3.23;;;21.80;25.90;;;;;;4973651;28;20995;-76
2021/05/25 06:23:20;;;;;;;3.17;3.00;;;21.80;25.90;;;;;;4974006;28;20418;-76
2021/05/25 06:25:47;;;;;;;3.40;3.20;;;21.80;26.30;;;;;;4956340;28;20246;-77
2021/05/25 06:28:13;;;;;;;3.47;3.27;;;21.90;26.30;;;;;;4973768;28;20175;-76
2021/05/25 06:30:39;;;;;;;3.37;3.03;;;21.90;26.30;;;;;;4973611;28;20425;-77
2021/05/25 06:33:05;;;;;;;3.65;3.35;;;21.90;26.10;;;;;;4972461;28;20422;-76
2021/05/25 06:35:32;;;;;;;3.83;2.87;;;22.00;25.90;;;;;;4973522;28;20287;-76
2021/05/25 06:37:59;;;;;;;4.00;3.70;;;22.20;25.70;;;;;;4973671;28;20414;-73
2021/05/25 06:40:25;;;;;;;5.90;3.30;;;22.10;25.80;;;;;;4973166;28;20461;-76
2021/05/25 06:42:50;;;;;;;3.40;3.10;;;22.10;26.10;;;;;;4973533;28;20421;-76
2021/05/25 06:45:16;;;;;;;5.13;3.37;;;22.10;26.20;;;;;;4973110;28;20426;-76
2021/05/25 06:47:42;;;;;;;5.20;3.40;;;22.10;26.00;;;;;;4957954;28;20618;-76
2021/05/25 06:50:09;;;;;;;4.83;3.60;;;22.20;26.00;;;;;;4973330;28;20553;-76
2021/05/25 06:52:35;;;;;;;7.63;3.92;;;22.20;26.00;;;;;;4971336;28;20418;-75
2021/05/25 06:55:03;;;;;;;7.57;3.80;;;22.20;25.90;;;;;;4973069;28;20218;-77
2021/05/25 06:57:29;;;;;;;6.43;4.30;;;22.10;26.10;;;;;;4959450;28;20437;-76
2021/05/25 06:59:54;;;;;;;4.60;3.73;;;21.90;26.30;;;;;;4972723;28;20806;-77
2021/05/25 07:02:22;;;;;;;6.90;3.73;;;21.90;26.70;;;;;;4972806;28;20466;-76
2021/05/25 07:04:50;;;;;;;13.20;5.03;;;21.80;26.90;;;;;;4989575;28;20166;-76
2021/05/25 07:07:18;;;;;;;9.10;4.23;;;21.60;27.10;;;;;;4975274;28;20428;-78
2021/05/25 07:09:44;;;;;;;5.70;3.90;;;21.50;27.10;;;;;;4985976;28;20414;-77
2021/05/25 07:12:11;;;;;;;6.03;3.90;;;21.50;27.50;;;;;;4973181;28;20457;-77
2021/05/25 07:14:36;;;;;;;8.47;4.43;;;21.40;27.70;;;;;;4975528;28;20828;-76
2021/05/25 07:17:02;;;;;;;5.70;4.83;;;21.30;27.80;;;;;;4976085;28;20461;-77
2021/05/25 07:19:28;;;;;;;5.20;3.90;;;21.30;27.80;;;;;;4977379;28;20533;-77
2021/05/25 07:21:54;;;;;;;11.73;4.80;;;21.30;27.80;;;;;;4975591;28;20469;-77
2021/05/25 07:24:19;;;;;;;5.83;3.80;;;21.30;28.10;;;;;;4976144;28;20701;-77
2021/05/25 07:26:45;;;;;;;5.57;4.20;;;21.30;28.20;;;;;;4960877;28;20309;-76
2021/05/25 07:29:10;;;;;;;5.40;3.70;;;21.20;28.40;;;;;;4978386;28;20221;-74
2021/05/25 07:31:36;;;;;;;5.57;4.57;;;21.20;28.40;;;;;;4978110;28;20241;-78
2021/05/25 07:34:02;;;;;;;5.10;4.13;;;21.20;28.30;;;;;;4977410;28;20185;-76
2021/05/25 07:36:27;;;;;;;5.20;3.93;;;21.10;28.50;;;;;;4976622;28;20191;-75
2021/05/25 07:38:53;;;;;;;5.90;4.47;;;21.10;28.30;;;;;;4976528;28;20183;-76
2021/05/25 07:41:19;;;;;;;6.20;4.37;;;21.10;28.70;;;;;;4976231;28;20595;-77
2021/05/25 07:43:44;;;;;;;8.27;3.33;;;21.10;28.80;;;;;;4976615;28;20170;-76
2021/05/25 07:46:11;;;;;;;4.80;4.40;;;21.00;28.60;;;;;;4976023;28;20175;-76
2021/05/25 07:48:36;;;;;;;6.33;4.00;;;21.00;28.80;;;;;;4976571;28;20209;-76
2021/05/25 07:51:02;;;;;;;5.23;3.83;;;21.00;29.10;;;;;;4976307;28;20466;-76
2021/05/25 07:53:28;;;;;;;5.43;4.13;;;21.00;29.30;;;;;;4976039;28;20230;-75
2021/05/25 07:55:54;;;;;;;3.90;3.53;;;20.90;29.10;;;;;;4976005;28;20442;-76
2021/05/25 07:58:19;;;;;;;6.23;3.50;;;20.90;29.20;;;;;;4976156;28;20191;-76
2021/05/25 08:00:45;;;;;;;6.67;3.63;;;20.90;30.00;;;;;;4976020;28;20556;-74
2021/05/25 08:03:11;;;;;;;4.90;3.87;;;20.80;29.30;;;;;;4976135;28;20175;-76
2021/05/25 08:05:37;;;;;;;4.63;4.20;;;20.80;29.60;;;;;;4975974;28;20484;-76
2021/05/25 08:08:04;;;;;;;4.27;3.77;;;20.80;29.70;;;;;;4975310;28;20659;-76
2021/05/25 08:10:30;;;;;;;4.53;3.93;;;20.80;29.70;;;;;;4977391;28;20418;-76
2021/05/25 08:12:56;;;;;;;5.30;3.67;;;20.70;29.60;;;;;;4975848;28;20766;-76
2021/05/25 08:15:23;;;;;;;5.60;3.67;;;20.70;29.80;;;;;;4974269;28;20418;-77
2021/05/25 08:20:16;;;;;;;6.77;4.30;;;20.70;30.00;;;;;;4976011;28;20405;-75
2021/05/25 08:22:53;;;;;;;6.73;3.53;;;20.70;29.90;;;;;;4975448;28;20202;-77
2021/05/25 08:25:23;;;;;;;8.07;4.67;;;20.70;30.50;;;;;;4974306;28;20789;-75
2021/05/25 08:27:49;;;;;;;5.40;4.40;;;20.60;30.40;;;;;;4958321;28;20415;-75
2021/05/25 08:30:18;;;;;;;6.60;3.87;;;20.50;30.30;;;;;;4975176;28;20477;-75
2021/05/25 08:32:44;;;;;;;5.17;4.00;;;20.50;30.30;;;;;;4975827;28;20440;-75
2021/05/25 08:35:10;;;;;;;7.43;4.37;;;20.40;30.20;;;;;;4975616;28;20410;-75
2021/05/25 08:37:36;;;;;;;8.50;4.03;;;20.40;30.50;;;;;;4975578;28;20410;-75
2021/05/25 08:40:04;;;;;;;7.90;3.80;;;20.40;30.20;;;;;;4975693;28;20417;-75
2021/05/25 08:42:30;;;;;;;3.90;3.70;;;20.40;30.20;;;;;;4975582;28;20294;-74
2021/05/25 08:44:56;;;;;;;6.90;4.13;;;20.30;30.60;;;;;;4975085;28;20493;-75
2021/05/25 08:47:21;;;;;;;4.37;3.97;;;20.20;30.00;;;;;;4975244;28;20668;-75
2021/05/25 08:49:47;;;;;;;5.73;4.10;;;20.30;30.60;;;;;;4975135;28;20175;-76
2021/05/25 08:52:15;;;;;;;6.00;4.43;;;20.20;30.30;;;;;;4975037;28;20194;-75
2021/05/25 08:54:42;;;;;;;4.30;3.80;;;20.20;30.20;;;;;;4975107;28;20213;-76
2021/05/25 08:57:09;;;;;;;7.17;4.07;;;20.20;30.30;;;;;;4975126;28;20827;-75
2021/05/25 08:59:36;;;;;;;5.37;3.50;;;20.20;30.50;;;;;;4975264;28;20406;-76
2021/05/25 09:02:04;;;;;;;9.37;3.70;;;20.10;30.00;;;;;;4975020;28;20540;-76
2021/05/25 09:04:56;;;;;;;4.07;3.77;;;20.10;30.40;;;;;;4975165;28;20406;-75
2021/05/25 09:07:38;;;;;;;3.60;3.30;;;20.10;30.00;;;;;;4974988;28;20403;-76
2021/05/25 09:10:07;;;;;;;4.07;3.73;;;20.00;30.00;;;;;;4975137;28;20406;-76
2021/05/25 09:12:37;;;;;;;3.23;3.03;;;20.00;30.20;;;;;;4974957;28;20422;-75
2021/05/25 09:15:04;;;;;;;5.87;4.53;;;20.00;30.20;;;;;;4974874;28;20453;-75
2021/05/25 09:17:29;;;;;;;3.20;3.00;;;20.00;30.30;;;;;;4974556;28;20421;-75
2021/05/25 09:19:56;;;;;;;3.90;3.60;;;20.00;30.20;;;;;;4974808;28;20414;-75
2021/05/25 09:22:33;;;;;;;6.03;3.70;;;20.00;30.20;;;;;;4973360;28;20240;-76
2021/05/25 09:25:07;;;;;;;4.17;3.50;;;19.90;30.20;;;;;;4974778;28;20402;-77
2021/05/25 09:28:03;;;;;;;4.30;3.37;;;19.90;30.20;;;;;;4974785;28;20449;-75
2021/05/25 09:30:32;;;;;;;3.70;3.40;;;19.90;30.40;;;;;;4974663;28;20414;-75
2021/05/25 09:33:00;;;;;;;3.93;3.60;;;19.90;30.50;;;;;;4974553;28;20499;-75
2021/05/25 09:35:32;;;;;;;6.00;3.30;;;19.90;30.50;;;;;;4973829;28;20437;-76
2021/05/25 09:38:01;;;;;;;3.40;3.10;;;19.90;30.40;;;;;;4974382;28;20413;-76
2021/05/25 09:40:30;;;;;;;3.77;3.27;;;19.90;30.50;;;;;;4974385;28;20914;-75
2021/05/25 09:43:08;;;;;;;4.00;3.40;;;19.90;30.60;;;;;;4974392;28;20414;-75
2021/05/25 09:45:34;;;;;;;3.70;3.40;;;19.80;30.60;;;;;;4974381;28;20947;-76
2021/05/25 09:48:03;;;;;;;3.97;3.57;;;19.80;30.60;;;;;;4974297;28;20781;-75
2021/05/25 09:50:30;;;;;;;3.73;3.40;;;19.80;30.70;;;;;;4956992;28;20471;-75
2021/05/25 09:53:02;;;;;;;4.60;3.37;;;19.80;30.60;;;;;;4974283;28;20823;-76
2021/05/25 09:55:30;;;;;;;4.07;3.73;;;19.80;30.60;;;;;;4974022;28;20800;-75
2021/05/25 09:57:58;;;;;;;3.67;2.70;;;19.80;30.60;;;;;;4974174;28;20497;-76
2021/05/25 10:00:33;;;;;;;3.50;3.30;;;19.80;30.60;;;;;;4974146;28;20423;-76
2021/05/25 10:03:10;;;;;;;3.53;3.23;;;19.80;30.70;;;;;;4974140;28;20425;-76
2021/05/25 10:05:37;;;;;;;3.90;3.17;;;19.80;30.70;;;;;;4974158;28;20398;-75
2021/05/25 10:08:04;;;;;;;3.63;3.33;;;19.70;30.60;;;;;;4974056;28;20871;-76
2021/05/25 10:10:31;;;;;;;3.40;3.20;;;19.80;30.90;;;;;;4973897;28;20943;-76
2021/05/25 10:12:58;;;;;;;3.87;3.50;;;19.80;30.90;;;;;;4973973;28;20959;-75
2021/05/25 10:15:26;;;;;;;3.50;3.30;;;19.70;30.90;;;;;;4973528;28;20414;-75
2021/05/25 10:20:32;;;;;;;3.63;3.43;;;19.70;30.70;;;;;;4993083;28;20829;-75
2021/05/25 10:22:58;;;;;;;3.20;3.00;;;19.70;30.80;;;;;;4980620;28;20413;-75
2021/05/25 10:25:26;;;;;;;3.63;3.10;;;19.70;30.90;;;;;;4972345;28;20912;-75
2021/05/25 10:27:52;;;;;;;3.80;3.10;;;19.70;31.10;;;;;;4973550;28;20182;-75
2021/05/25 10:30:24;;;;;;;7.80;3.37;;;19.70;31.30;;;;;;4973532;28;20402;-74
2021/05/25 10:33:05;;;;;;;3.83;3.43;;;19.60;31.10;;;;;;4973551;28;20186;-75
2021/05/25 10:35:50;;;;;;;3.40;3.20;;;19.60;31.20;;;;;;4972010;28;20418;-75
2021/05/25 10:38:16;;;;;;;3.00;2.83;;;19.70;31.30;;;;;;4973558;28;20498;-75
2021/05/25 10:40:46;;;;;;;3.23;3.00;;;19.60;31.10;;;;;;4973252;28;20459;-75
2021/05/25 10:43:42;;;;;;;2.90;2.80;;;19.60;31.10;;;;;;4965836;28;20824;-75
2021/05/25 10:46:11;;;;;;;3.40;3.13;;;19.60;31.10;;;;;;4973178;28;20410;-74
2021/05/25 10:49:00;;;;;;;3.40;3.20;;;19.70;31.90;;;;;;4973098;28;20414;-74
2021/05/25 10:51:44;;;;;;;3.30;3.00;;;19.60;31.20;;;;;;4971966;28;20430;-76
2021/05/25 10:54:31;;;;;;;3.27;3.07;;;19.60;31.20;;;;;;4965249;28;20517;-75
2021/05/25 10:57:00;;;;;;;3.30;3.00;;;19.60;31.20;;;;;;4973156;28;20433;-75
2021/05/25 10:59:26;;;;;;;3.30;3.10;;;19.60;31.50;;;;;;4973312;28;20505;-76
2021/05/25 11:01:59;;;;;;;3.60;3.30;;;19.60;32.20;;;;;;4973291;28;20999;-75
2021/05/25 11:04:34;;;;;;;3.63;3.30;;;19.60;31.60;;;;;;4973393;28;20776;-74
2021/05/25 11:07:00;;;;;;;3.30;3.10;;;19.60;31.70;;;;;;4975915;28;20422;-74
2021/05/25 11:09:28;;;;;;;3.53;3.17;;;19.60;31.70;;;;;;4994205;28;20776;-75
2021/05/25 11:12:14;;;;;;;3.90;3.60;;;19.60;31.70;;;;;;4992944;28;20198;-75
2021/05/25 11:15:15;;;;;;;3.20;3.00;;;19.70;32.40;;;;;;4992667;28;20991;-74
2021/05/25 11:17:44;;;;;;;3.37;3.07;;;19.70;31.50;;;;;;4992399;28;20415;-75
2021/05/25 11:20:29;;;;;;;3.37;3.17;;;19.80;31.40;;;;;;4975106;28;20421;-76
2021/05/25 11:22:55;;;;;;;3.03;2.83;;;19.80;31.50;;;;;;4980462;28;20500;-75
2021/05/25 11:25:40;;;;;;;3.73;3.43;;;19.80;31.30;;;;;;4972944;28;20501;-74
2021/05/25 11:28:06;;;;;;;3.53;3.33;;;19.80;31.60;;;;;;4971693;28;20178;-75
2021/05/25 11:30:33;;;;;;;3.60;3.40;;;19.70;31.30;;;;;;4972774;28;20417;-75
2021/05/25 11:33:01;;;;;;;3.47;3.27;;;19.70;31.40;;;;;;4955573;28;20186;-76
2021/05/25 11:35:28;;;;;;;3.13;3.00;;;19.70;31.40;;;;;;4972727;28;20496;-75
2021/05/25 11:38:00;;;;;;;3.13;2.93;;;19.70;31.50;;;;;;4972781;28;20453;-75
2021/05/25 11:40:28;;;;;;;3.47;3.17;;;19.70;31.60;;;;;;4972894;28;20421;-75
2021/05/25 11:42:55;;;;;;;3.40;3.20;;;19.70;31.60;;;;;;4972670;28;20442;-76
2021/05/25 11:45:24;;;;;;;3.23;3.03;;;19.70;31.70;;;;;;4971296;28;20422;-76
2021/05/25 11:48:00;;;;;;;3.33;3.13;;;19.70;31.80;;;;;;4972658;28;20446;-75
2021/05/25 11:50:27;;;;;;;3.50;3.30;;;19.70;31.70;;;;;;4972567;28;20438;-76
2021/05/25 11:52:54;;;;;;;4.03;2.97;;;19.70;31.70;;;;;;4972689;28;20960;-76
2021/05/25 11:55:22;;;;;;;3.47;3.17;;;19.70;31.80;;;;;;4972497;28;20430;-75
2021/05/25 11:57:52;;;;;;;3.60;3.40;;;19.60;31.70;;;;;;4972492;28;20414;-76
2021/05/25 12:00:25;;;;;;;4.93;3.23;;;19.60;31.70;;;;;;4975032;28;20426;-75
2021/05/25 12:03:02;;;;;;;3.20;3.00;;;19.60;32.00;;;;;;4976765;28;20828;-76
2021/05/25 12:05:32;;;;;;;4.00;3.70;;;19.60;31.60;;;;;;4995543;28;20413;-76
2021/05/25 12:08:00;;;;;;;3.20;3.00;;;19.60;31.60;;;;;;4995762;28;20416;-76
2021/05/25 12:10:31;;;;;;;3.50;3.30;;;19.60;31.70;;;;;;4995724;28;20413;-75
2021/05/25 12:13:03;;;;;;;3.07;2.87;;;19.60;31.70;;;;;;4995615;28;20414;-75
2021/05/25 12:15:28;;;;;;;3.40;3.20;;;19.60;31.80;;;;;;4995320;28;20409;-76
2021/05/25 12:17:56;;;;;;;3.30;3.10;;;19.60;31.80;;;;;;4995525;28;20547;-75
2021/05/25 12:20:24;;;;;;;3.60;3.40;;;19.60;31.70;;;;;;4994929;28;20212;-76
2021/05/25 12:22:53;;;;;;;3.93;3.70;;;19.60;31.80;;;;;;4983866;28;20940;-76
2021/05/25 12:25:24;;;;;;;4.20;3.70;;;19.60;31.80;;;;;;4975619;28;20414;-76
2021/05/25 12:28:11;;;;;;;4.00;3.70;;;19.60;31.80;;;;;;4974822;28;20417;-76
2021/05/25 12:30:43;;;;;;;3.70;3.40;;;19.60;31.90;;;;;;4974496;28;20418;-75
2021/05/25 12:33:18;;;;;;;4.10;3.70;;;19.60;31.80;;;;;;4975663;28;20773;-75
2021/05/25 12:35:45;;;;;;;3.73;3.43;;;19.50;31.70;;;;;;4975570;28;20424;-76
2021/05/25 12:38:14;;;;;;;3.73;3.50;;;19.60;31.90;;;;;;4967811;28;20417;-76
2021/05/25 12:40:42;;;;;;;3.80;3.37;;;19.60;31.90;;;;;;4975563;28;20836;-76
2021/05/25 12:43:14;;;;;;;2.80;2.60;;;19.50;31.70;;;;;;4975593;28;20441;-75
2021/05/25 12:45:41;;;;;;;4.67;4.30;;;19.60;31.90;;;;;;4975189;28;20406;-76
2021/05/25 12:48:07;;;;;;;3.93;3.63;;;19.60;31.80;;;;;;4975411;28;20437;-76
2021/05/25 12:50:36;;;;;;;4.77;3.80;;;19.50;31.80;;;;;;4975338;28;20765;-76
2021/05/25 12:53:08;;;;;;;4.37;4.17;;;19.50;31.80;;;;;;4975494;28;20183;-75